Time;durP1;ratioP1;P1;durP2;ratioP2;P2;SDS_P1;SDS_P2;PMS_P1;PMS_P2;Temp;Humidity;BMP_temperature;BMP_pressure;BME280_temperature;BME280_humidity;BME280_pressure;Samples;Min_cycle;Max_cycle;Signal;HPM_P1;HPM_P2
2022/04/29 00:00:47;;;;;;;;;27.25;22.25;;;;;18.27;62.95;102403.69;5099265;27;45937;-79
2022/04/29 00:03:14;;;;;;;;;27.25;22.50;;;;;18.22;63.07;102398.31;5099331;27;45282;-79
2022/04/29 00:05:41;;;;;;;;;30.75;26.50;;;;;18.20;63.22;102399.19;5098799;27;45426;-80
2022/04/29 00:08:08;;;;;;;;;26.75;24.50;;;;;18.16;63.40;102398.25;5099398;27;45220;-79
2022/04/29 00:10:34;;;;;;;;;26.25;26.25;;;;;18.14;63.63;102385.78;5098766;27;47845;-79
2022/04/29 00:13:01;;;;;;;;;27.75;25.25;;;;;18.09;64.54;102392.88;5099304;27;45157;-79
2022/04/29 00:15:26;;;;;;;;;28.50;26.50;;;;;18.05;64.05;102381.28;5099276;27;45447;-80
2022/04/29 00:17:52;;;;;;;;;29.25;27.25;;;;;18.05;64.19;102383.94;5099222;27;45295;-80
2022/04/29 00:20:17;;;;;;;;;27.50;26.25;;;;;18.01;64.31;102379.50;5099099;27;45876;-80
2022/04/29 00:22:44;;;;;;;;;28.25;27.00;;;;;17.98;64.34;102372.34;5098829;27;45378;-80
2022/04/29 00:25:10;;;;;;;;;28.25;26.00;;;;;17.98;64.50;102374.13;5099198;27;45375;-79
2022/04/29 00:27:37;;;;;;;;;37.25;30.00;;;;;17.94;65.22;102370.53;5080864;27;45295;-79
2022/04/29 00:30:04;;;;;;;;;27.25;24.75;;;;;17.92;64.80;102368.75;5098945;27;47441;-80
2022/04/29 00:32:29;;;;;;;;;29.00;25.25;;;;;17.92;65.12;102368.75;5098374;27;45510;-80
2022/04/29 00:34:55;;;;;;;;;31.75;26.50;;;;;17.86;65.19;102361.59;5102916;27;45338;-80
2022/04/29 00:37:20;;;;;;;;;29.00;26.25;;;;;17.85;65.51;102365.16;5098737;27;45177;-79
2022/04/29 00:39:45;;;;;;;;;33.25;28.00;;;;;17.80;65.59;102365.13;5098644;27;47324;-79
2022/04/29 00:42:16;;;;;;;;;27.75;25.50;;;;;17.77;65.47;102367.78;5084636;27;45322;-80
2022/04/29 00:44:42;;;;;;;;;30.00;25.00;;;;;17.73;65.95;102365.97;5098851;27;45296;-80
2022/04/29 00:47:10;;;;;;;;;31.00;28.25;;;;;17.69;66.12;102363.25;5098796;27;45444;-80
2022/04/29 00:49:36;;;;;;;;;31.25;26.75;;;;;17.65;66.31;102362.34;5098493;27;47612;-78
2022/04/29 00:52:02;;;;;;;;;29.25;25.25;;;;;17.62;66.88;102358.75;5098572;27;45189;-79
2022/04/29 00:54:30;;;;;;;;;30.25;27.75;;;;;17.60;66.97;102358.75;5098394;27;45349;-80
2022/04/29 00:56:57;;;;;;;;;33.00;30.00;;;;;17.58;66.74;102355.19;5098463;27;45376;-79
2022/04/29 00:59:52;;;;;;;;;31.75;29.25;;;;;17.55;66.87;102349.81;5098397;27;47473;-80
2022/04/29 01:02:17;;;;;;;;;35.25;30.75;;;;;17.50;67.15;102344.41;5097738;27;45282;-80
2022/04/29 01:04:54;;;;;;;;;35.00;27.75;;;;;17.49;67.32;102350.66;5098231;27;45996;-79
2022/04/29 01:07:20;;;;;;;;;28.00;28.00;;;;;17.46;67.33;102341.72;5088452;27;45257;-79
2022/04/29 01:09:46;;;;;;;;;40.75;31.75;;;;;17.42;67.38;102335.47;5097960;27;47275;-80
2022/04/29 01:12:11;;;;;;;;;34.50;28.50;;;;;17.41;67.50;102331.00;5079825;27;53807;-80
2022/04/29 01:14:37;;;;;;;;;32.75;30.50;;;;;17.40;67.81;102331.00;5098191;27;47497;-80
2022/04/29 01:17:03;;;;;;;;;28.50;28.25;;;;;17.40;67.86;102328.31;5098284;27;45440;-79
2022/04/29 01:19:30;;;;;;;;;33.25;30.25;;;;;17.38;67.83;102328.31;5097889;27;46579;-79
2022/04/29 01:21:59;;;;;;;;;35.00;28.50;;;;;17.37;68.05;102315.88;5098168;27;45328;-79
2022/04/29 01:24:25;;;;;;;;;36.00;29.50;;;;;17.34;68.22;102321.16;5098204;27;45185;-79
2022/04/29 01:26:50;;;;;;;;;34.75;27.25;;;;;17.32;68.39;102322.94;5097776;27;45195;-79
2022/04/29 01:29:18;;;;;;;;;24.50;22.50;;;;;17.31;68.30;102328.25;5097863;27;47640;-79
2022/04/29 01:31:46;;;;;;;;;29.50;28.50;;;;;17.28;68.63;102332.69;5079798;27;45396;-81
2022/04/29 01:34:11;;;;;;;;;30.75;27.50;;;;;17.25;68.50;102340.69;5083543;27;45468;-80
2022/04/29 01:36:36;;;;;;;;;34.25;30.00;;;;;17.22;68.75;102332.66;5098054;27;45326;-80
2022/04/29 01:39:02;;;;;;;;;32.00;25.00;;;;;17.17;68.83;102329.06;5097479;27;54823;-79
2022/04/29 01:41:27;;;;;;;;;34.75;30.50;;;;;17.15;69.27;102330.84;5084104;27;45241;-79
2022/04/29 01:43:53;;;;;;;;;33.50;30.75;;;;;17.11;69.20;102334.34;5079366;27;45230;-79
2022/04/29 01:46:18;;;;;;;;;36.00;30.75;;;;;17.11;69.38;102334.34;5079815;27;45595;-79
2022/04/29 01:48:43;;;;;;;;;27.50;26.50;;;;;17.08;69.51;102328.97;5097822;27;47407;-79
2022/04/29 01:51:09;;;;;;;;;30.75;28.50;;;;;17.05;69.54;102320.97;5097699;27;45329;-79
2022/04/29 01:53:34;;;;;;;;;33.25;28.25;;;;;17.01;69.47;102333.38;5097418;27;45653;-79
2022/04/29 01:55:59;;;;;;;;;30.50;28.75;;;;;16.96;70.05;102329.78;5097658;27;45248;-79
2022/04/29 01:58:25;;;;;;;;;36.75;29.25;;;;;16.94;70.08;102333.34;5096905;27;46975;-78
2022/04/29 02:00:50;;;;;;;;;32.00;28.50;;;;;16.94;70.19;102334.22;5097806;27;45141;-79
2022/04/29 02:03:16;;;;;;;;;32.75;28.75;;;;;16.94;69.78;102330.66;5097376;27;45159;-80
2022/04/29 02:05:41;;;;;;;;;29.25;28.00;;;;;16.96;70.02;102336.91;5097601;27;45301;-79
2022/04/29 02:08:07;;;;;;;;;35.50;30.75;;;;;16.93;70.38;102334.19;5097106;27;50337;-79
2022/04/29 02:10:32;;;;;;;;;31.00;28.75;;;;;16.94;70.34;102333.34;5078913;27;45454;-79
2022/04/29 02:12:58;;;;;;;;;29.25;26.25;;;;;16.92;70.22;102325.28;5097577;27;45349;-79
2022/04/29 02:15:23;;;;;;;;;31.00;28.50;;;;;16.92;70.88;102329.72;5097553;27;45633;-80
2022/04/29 02:17:49;;;;;;;;;37.50;31.25;;;;;16.88;70.89;102336.81;5097089;27;46742;-80
2022/04/29 02:20:14;;;;;;;;;37.75;31.00;;;;;16.91;70.91;102338.63;5101009;27;45287;-80
2022/04/29 02:22:40;;;;;;;;;32.50;25.25;;;;;16.91;70.99;102346.63;5100872;27;45370;-79
2022/04/29 02:25:06;;;;;;;;;31.75;29.00;;;;;16.90;70.88;102344.84;5101186;27;45483;-79
2022/04/29 02:27:32;;;;;;;;;33.25;28.75;;;;;16.91;70.91;102350.19;5100453;27;46871;-78
2022/04/29 02:29:57;;;;;;;;;34.25;31.25;;;;;16.93;70.73;102347.53;5101480;27;45258;-78
2022/04/29 02:32:22;;;;;;;;;33.00;29.00;;;;;16.95;71.17;102346.69;5100785;27;45551;-80
2022/04/29 02:34:48;;;;;;;;;34.00;31.00;;;;;16.96;70.67;102355.56;5104872;27;45256;-79
2022/04/29 02:37:13;;;;;;;;;38.25;30.00;;;;;16.95;71.00;102344.00;5100433;27;46077;-79
2022/04/29 02:39:39;;;;;;;;;39.00;31.00;;;;;16.97;70.52;102338.69;5082430;27;45254;-79
2022/04/29 02:42:07;;;;;;;;;32.00;28.00;;;;;16.98;70.79;102337.78;5100716;27;45401;-80
2022/04/29 02:44:32;;;;;;;;;33.25;30.25;;;;;16.97;70.57;102336.91;5100800;27;45320;-79
2022/04/29 02:47:10;;;;;;;;;34.00;31.00;;;;;16.97;70.79;102333.34;5100292;27;47313;-80
2022/04/29 02:49:40;;;;;;;;;41.25;32.75;;;;;16.98;70.38;102333.34;5100602;27;45469;-79
2022/04/29 02:52:06;;;;;;;;;33.50;31.25;;;;;16.99;70.83;102337.81;5100489;27;45275;-79
2022/04/29 02:54:32;;;;;;;;;37.00;30.50;;;;;16.99;70.43;102337.81;5100424;27;45315;-79
2022/04/29 02:56:58;;;;;;;;;34.25;32.25;;;;;16.99;70.32;102334.22;5099685;27;47636;-80
2022/04/29 02:59:23;;;;;;;;;30.75;29.75;;;;;16.99;70.46;102339.56;5100377;27;45288;-79
2022/04/29 03:01:48;;;;;;;;;33.25;30.50;;;;;16.98;70.78;102336.00;5100219;27;45745;-80
2022/04/29 03:04:14;;;;;;;;;38.50;28.50;;;;;16.96;70.40;102335.13;5100451;27;45244;-79
2022/04/29 03:06:40;;;;;;;;;29.75;26.75;;;;;16.96;70.69;102335.13;5100004;27;45508;-79
2022/04/29 03:09:05;;;;;;;;;31.25;28.75;;;;;16.96;70.68;102348.47;5100015;27;45441;-80
2022/04/29 03:11:31;;;;;;;;;36.25;31.00;;;;;16.97;70.25;102339.56;5100064;27;45287;-78
2022/04/29 03:13:57;;;;;;;;;40.00;32.50;;;;;16.96;70.64;102334.22;5100371;27;45411;-80
2022/04/29 03:16:22;;;;;;;;;31.00;28.75;;;;;16.96;70.22;102337.78;5081711;27;46355;-79
2022/04/29 03:18:48;;;;;;;;;34.50;29.50;;;;;16.95;70.56;102328.00;5100095;27;45215;-80
2022/04/29 03:21:13;;;;;;;;;35.75;30.25;;;;;16.95;70.70;102332.44;5081758;27;45352;-79
2022/04/29 03:23:39;;;;;;;;;35.50;29.50;;;;;16.95;70.53;102330.66;5100207;27;45133;-79
2022/04/29 03:26:05;;;;;;;;;32.25;28.25;;;;;16.92;70.45;102325.28;5099364;27;46448;-79
2022/04/29 03:28:30;;;;;;;;;29.50;27.00;;;;;16.93;70.25;102324.41;5100242;27;45312;-79
2022/04/29 03:30:56;;;;;;;;;37.25;32.25;;;;;16.90;70.50;102321.72;5099841;27;45340;-81
2022/04/29 03:33:21;;;;;;;;;39.50;32.75;;;;;16.91;70.93;102318.16;5095425;27;45564;-79
2022/04/29 03:35:50;;;;;;;;;29.00;29.00;;;;;16.88;70.75;102320.78;5084772;27;47224;-80
2022/04/29 03:38:15;;;;;;;;;36.00;31.00;;;;;16.88;70.64;102319.91;5099608;27;45318;-80
2022/04/29 03:40:41;;;;;;;;;38.75;31.00;;;;;16.85;70.27;102304.78;5086082;27;45343;-80
2022/04/29 03:43:06;;;;;;;;;39.00;32.75;;;;;16.86;70.27;102298.56;5099984;27;45269;-80
2022/04/29 03:45:32;;;;;;;;;36.00;31.50;;;;;16.83;70.54;102295.88;5099719;27;45432;-80
2022/04/29 03:47:58;;;;;;;;;34.75;30.25;;;;;16.82;70.61;102294.06;5099546;27;45225;-80
2022/04/29 03:50:25;;;;;;;;;31.50;26.50;;;;;16.82;70.46;102291.41;5099803;27;45253;-79
2022/04/29 03:52:55;;;;;;;;;31.00;30.25;;;;;16.80;70.96;102289.63;5099683;27;45446;-79
2022/04/29 03:55:22;;;;;;;;;40.25;34.50;;;;;16.80;70.94;102287.84;5080910;27;46659;-80
2022/04/29 03:57:48;;;;;;;;;34.75;29.00;;;;;16.77;70.81;102288.69;5099018;27;45460;-79
2022/04/29 04:00:15;;;;;;;;;29.50;27.75;;;;;16.77;71.06;102288.69;5099495;27;45253;-80
2022/04/29 04:02:40;;;;;;;;;37.75;31.25;;;;;16.79;70.87;102290.50;5099153;27;45444;-79
2022/04/29 04:05:07;;;;;;;;;40.50;31.00;;;;;16.79;70.63;102287.84;5099058;27;46619;-80
2022/04/29 04:07:33;;;;;;;;;31.25;28.25;;;;;16.79;70.79;102287.84;5099383;27;45372;-80
2022/04/29 04:09:58;;;;;;;;;35.25;29.00;;;;;16.77;70.73;102293.13;5099204;27;45419;-78
2022/04/29 04:12:24;;;;;;;;;37.50;31.00;;;;;16.75;70.78;102287.78;5099587;27;45362;-79
2022/04/29 04:14:50;;;;;;;;;32.25;25.25;;;;;16.74;70.73;102291.34;5099103;27;45357;-79
2022/04/29 04:17:15;;;;;;;;;37.50;29.50;;;;;16.74;71.03;102290.47;5098981;27;45321;-80
2022/04/29 04:19:41;;;;;;;;;31.00;31.00;;;;;16.71;70.96;102293.97;5099050;27;45483;-80
2022/04/29 04:22:06;;;;;;;;;31.25;28.00;;;;;16.69;70.76;102293.06;5099362;27;45620;-80
2022/04/29 04:24:32;;;;;;;;;36.75;32.00;;;;;16.67;70.96;102289.47;5099220;27;46932;-80
2022/04/29 04:26:57;;;;;;;;;33.00;29.50;;;;;16.65;70.93;102293.00;5098452;27;45207;-80
2022/04/29 04:29:23;;;;;;;;;31.75;30.50;;;;;16.63;71.38;102298.34;5099112;27;45313;-79
2022/04/29 04:31:48;;;;;;;;;34.50;31.50;;;;;16.62;71.15;102292.97;5099051;27;45208;-80
2022/04/29 04:37:07;;;;;;;;;36.00;31.50;;;;;16.59;71.22;102290.28;5074291;27;45335;-79
2022/04/29 04:39:32;;;;;;;;;31.00;29.75;;;;;16.57;71.46;102295.59;5077310;28;45242;-79
2022/04/29 04:41:58;;;;;;;;;33.00;30.25;;;;;16.57;71.63;102295.59;5096671;27;45242;-80
2022/04/29 04:44:23;;;;;;;;;33.00;30.00;;;;;16.55;71.37;102304.47;5098494;27;54135;-80
2022/04/29 04:46:49;;;;;;;;;32.25;30.75;;;;;16.54;71.67;102300.91;5077716;27;46031;-79
2022/04/29 04:49:15;;;;;;;;;33.50;31.00;;;;;16.54;71.57;102303.56;5098481;27;46246;-79
2022/04/29 04:51:41;;;;;;;;;32.00;28.25;;;;;16.52;71.26;102299.13;5098763;27;45391;-79
2022/04/29 04:54:06;;;;;;;;;34.50;29.25;;;;;16.53;71.43;102301.78;5097823;27;49898;-80
2022/04/29 04:56:32;;;;;;;;;37.25;28.00;;;;;16.52;71.26;102296.44;5098134;27;45468;-79
2022/04/29 04:58:57;;;;;;;;;29.50;29.50;;;;;16.52;71.49;102304.44;5098285;27;45318;-81
2022/04/29 05:01:23;;;;;;;;;36.75;31.25;;;;;16.53;71.72;102306.22;5098669;27;45362;-80
2022/04/29 05:03:49;;;;;;;;;37.50;30.00;;;;;16.50;72.01;102294.63;5097389;27;52453;-79
2022/04/29 05:06:14;;;;;;;;;36.25;29.75;;;;;16.50;71.93;102302.63;5232714;22;45309;-79
2022/04/29 05:08:40;;;;;;;;;31.50;29.00;;;;;16.48;71.62;102301.72;5118778;27;45534;-78
2022/04/29 05:11:05;;;;;;;;;32.00;28.25;;;;;16.49;71.87;102307.97;5133438;27;45394;-80
2022/04/29 05:13:30;;;;;;;;;30.75;29.25;;;;;16.50;71.78;102312.41;5136004;27;46105;-80
2022/04/29 05:15:57;;;;;;;;;30.75;29.00;;;;;16.51;72.35;102311.53;5130736;27;45291;-80
2022/04/29 05:18:22;;;;;;;;;29.50;28.75;;;;;16.52;71.90;102313.34;5139665;27;45324;-79
2022/04/29 05:20:48;;;;;;;;;32.50;30.25;;;;;16.53;72.17;102315.13;5139609;27;45385;-79
2022/04/29 05:23:14;;;;;;;;;33.50;29.00;;;;;16.54;72.07;102316.00;5139263;27;45753;-79
2022/04/29 05:25:39;;;;;;;;;31.50;27.00;;;;;16.52;72.03;102310.66;5139193;27;45198;-79
2022/04/29 05:28:06;;;;;;;;;36.75;29.00;;;;;16.55;72.43;102323.13;5139689;27;45648;-79
2022/04/29 05:30:31;;;;;;;;;32.50;28.50;;;;;16.57;72.35;102326.72;5139604;27;45233;-79
2022/04/29 05:32:57;;;;;;;;;34.00;31.00;;;;;16.58;72.00;102331.16;5122000;27;46526;-79
2022/04/29 05:35:23;;;;;;;;;33.25;29.50;;;;;16.59;72.18;102328.50;5131592;27;45572;-79
2022/04/29 05:37:49;;;;;;;;;41.00;30.25;;;;;16.61;71.99;102329.41;5139575;27;45257;-79
2022/04/29 05:42:58;;;;;;;;;31.75;28.75;;;;;16.64;72.01;102329.44;5109595;27;45885;-79
2022/04/29 05:45:24;;;;;;;;;28.75;25.00;;;;;16.64;72.36;102323.22;5134550;27;45438;-80
2022/04/29 05:47:49;;;;;;;;;32.25;29.75;;;;;16.64;72.40;102333.88;5138043;27;45471;-79
2022/04/29 05:50:15;;;;;;;;;33.75;27.75;;;;;16.65;71.91;102333.91;5139143;27;45445;-80
2022/04/29 05:52:40;;;;;;;;;31.75;27.75;;;;;16.66;72.08;102329.44;5137840;27;46673;-79
2022/04/29 05:55:06;;;;;;;;;33.50;28.50;;;;;16.68;71.95;102341.94;5122000;27;45269;-80
2022/04/29 05:57:32;;;;;;;;;37.00;30.00;;;;;16.70;71.88;102340.16;5118366;27;45292;-80
2022/04/29 05:59:58;;;;;;;;;36.25;30.75;;;;;16.69;71.98;102346.41;5132897;27;45208;-80
2022/04/29 06:02:25;;;;;;;;;33.25;30.00;;;;;16.70;72.01;102348.19;5138955;27;46466;-79
2022/04/29 06:04:53;;;;;;;;;39.50;30.00;;;;;16.73;72.01;102353.59;5138565;27;45260;-79
2022/04/29 06:07:18;;;;;;;;;32.25;27.50;;;;;16.73;71.81;102353.59;5138846;27;45514;-79
2022/04/29 06:09:44;;;;;;;;;33.50;32.00;;;;;16.76;71.53;102355.38;5130758;27;45402;-80
2022/04/29 06:12:09;;;;;;;;;38.00;30.50;;;;;16.79;72.00;102354.53;5136079;27;47107;-79
2022/04/29 06:14:35;;;;;;;;;32.50;28.25;;;;;16.82;71.58;102358.09;5134688;27;45366;-79
2022/04/29 06:17:01;;;;;;;;;34.25;30.75;;;;;16.85;71.20;102370.59;5134200;27;45519;-80
2022/04/29 06:19:26;;;;;;;;;33.75;26.00;;;;;16.84;71.58;102367.03;5118145;27;45380;-80
2022/04/29 06:21:52;;;;;;;;;34.50;30.50;;;;;16.85;71.38;102362.59;5116471;27;51248;-80
2022/04/29 06:24:17;;;;;;;;;31.25;29.25;;;;;16.88;71.74;102357.25;5117797;27;45316;-79
2022/04/29 06:26:42;;;;;;;;;40.00;30.00;;;;;16.91;71.93;102366.19;5134078;27;45280;-79
2022/04/29 06:29:08;;;;;;;;;35.25;31.00;;;;;16.94;71.59;102368.03;5117798;27;45509;-79
2022/04/29 06:31:33;;;;;;;;;41.75;33.25;;;;;16.94;71.17;102363.56;5112798;27;47626;-79
2022/04/29 06:33:59;;;;;;;;;36.50;30.75;;;;;16.96;71.18;102368.91;5115471;27;45210;-79
2022/04/29 06:36:24;;;;;;;;;40.50;30.75;;;;;16.99;71.36;102371.59;5122891;27;45518;-80
2022/04/29 06:38:50;;;;;;;;;40.00;31.00;;;;;17.00;71.24;102371.63;5133336;27;45190;-80
2022/04/29 06:41:15;;;;;;;;;36.00;33.00;;;;;17.00;71.52;102363.63;5123763;27;45514;-79
2022/04/29 06:43:40;;;;;;;;;42.25;34.50;;;;;17.00;71.42;102360.97;5117640;27;45587;-79
2022/04/29 06:46:06;;;;;;;;;37.75;32.00;;;;;17.01;71.70;102361.84;5117608;27;45442;-80
2022/04/29 06:48:31;;;;;;;;;36.75;31.25;;;;;16.98;71.55;102357.34;5117622;27;45173;-79
2022/04/29 06:50:58;;;;;;;;;30.50;29.00;;;;;16.98;71.95;102359.13;5116269;27;45614;-79
2022/04/29 06:53:23;;;;;;;;;33.75;30.00;;;;;16.99;72.19;102358.25;5117304;27;45451;-79
2022/04/29 06:55:49;;;;;;;;;39.50;32.50;;;;;16.96;71.60;102353.78;5117718;27;45349;-79
2022/04/29 06:58:14;;;;;;;;;36.50;31.00;;;;;16.99;71.91;102368.91;5123645;27;45300;-79
2022/04/29 07:00:40;;;;;;;;;37.00;31.00;;;;;16.99;71.88;102374.25;5117547;27;46861;-80
2022/04/29 07:03:06;;;;;;;;;34.50;32.25;;;;;16.96;72.14;102376.91;5133810;27;45346;-80
2022/04/29 07:05:32;;;;;;;;;37.00;32.50;;;;;16.97;72.09;102397.38;5140847;27;45402;-80
2022/04/29 07:07:58;;;;;;;;;37.25;32.00;;;;;16.96;71.79;102393.81;5141861;27;45456;-80
2022/04/29 07:10:24;;;;;;;;;41.25;34.00;;;;;16.96;72.12;102396.50;5133346;27;47689;-79
2022/04/29 07:12:49;;;;;;;;;39.75;34.00;;;;;16.99;72.01;102392.94;5141745;27;45205;-80
2022/04/29 07:15:15;;;;;;;;;38.25;32.50;;;;;17.04;72.35;102393.88;5125655;27;45561;-80
2022/04/29 07:17:42;;;;;;;;;42.00;33.25;;;;;17.12;71.98;102388.63;5120958;27;45189;-78
2022/04/29 07:20:08;;;;;;;;;45.75;34.50;;;;;17.16;71.89;102386.00;5119403;27;47582;-80
2022/04/29 07:22:35;;;;;;;;;40.50;34.25;;;;;17.25;72.05;102383.38;5120295;27;45451;-80
2022/04/29 07:25:01;;;;;;;;;47.50;37.25;;;;;17.30;72.01;102380.75;5120736;27;45436;-79
2022/04/29 07:27:28;;;;;;;;;43.50;34.25;;;;;17.35;71.74;102389.69;5119572;27;45463;-81
2022/04/29 07:29:54;;;;;;;;;63.00;44.25;;;;;17.32;71.47;102389.69;5119115;27;46086;-78
2022/04/29 07:32:20;;;;;;;;;55.00;40.00;;;;;17.33;71.20;102385.25;5120300;27;45197;-79
2022/04/29 07:42:56;;;;;;;;;53.25;40.75;;;;;17.35;72.21;102387.03;5120426;27;45416;-79
2022/04/29 07:45:22;;;;;;;;;47.00;37.50;;;;;17.42;72.47;102388.00;5120301;27;45296;-80
2022/04/29 07:47:47;;;;;;;;;43.75;35.75;;;;;17.48;72.41;102393.38;5129818;27;45449;-78
2022/04/29 07:50:13;;;;;;;;;45.50;37.25;;;;;17.50;72.37;102384.47;5131470;27;47209;-79
2022/04/29 07:52:38;;;;;;;;;46.50;36.25;;;;;17.54;71.77;102388.09;5137931;27;45368;-80
2022/04/29 07:55:05;;;;;;;;;45.50;34.50;;;;;17.60;72.23;102384.56;5124268;27;45411;-80
2022/04/29 07:57:30;;;;;;;;;47.50;36.25;;;;;17.66;71.61;102397.94;5120178;27;45549;-79
2022/04/29 07:59:55;;;;;;;;;45.00;36.25;;;;;17.70;71.80;102395.31;5135547;27;51111;-79
2022/04/29 08:02:21;;;;;;;;;44.50;35.25;;;;;17.72;71.67;102390.91;5140794;27;45181;-80
2022/04/29 08:04:46;;;;;;;;;44.50;37.00;;;;;17.79;71.89;102394.53;5140364;27;46895;-79
2022/04/29 08:07:12;;;;;;;;;48.00;38.50;;;;;17.87;71.94;102389.22;5140982;27;45323;-79
2022/04/29 08:09:38;;;;;;;;;46.00;38.00;;;;;17.94;71.96;102391.91;5128738;27;47400;-79
2022/04/29 08:12:04;;;;;;;;;46.75;37.00;;;;;17.99;72.02;102389.28;5119750;27;45305;-78
2022/04/29 08:14:31;;;;;;;;;42.75;34.25;;;;;18.05;72.07;102394.66;5122546;27;45476;-79
2022/04/29 08:16:56;;;;;;;;;47.50;36.50;;;;;18.15;72.01;102398.25;5139784;27;45269;-79
2022/04/29 08:19:23;;;;;;;;;48.25;38.25;;;;;18.25;71.43;102394.75;5129264;27;46652;-80
2022/04/29 08:21:48;;;;;;;;;45.75;35.75;;;;;18.28;71.04;102408.16;5140496;27;45358;-80
2022/04/29 08:24:14;;;;;;;;;52.50;41.25;;;;;18.29;70.88;102397.44;5140689;27;45365;-80
2022/04/29 08:26:40;;;;;;;;;47.50;37.25;;;;;18.32;71.02;102402.81;5140622;27;45320;-79
2022/04/29 08:29:05;;;;;;;;;47.75;39.50;;;;;18.31;70.71;102398.34;5140209;27;46364;-79
2022/04/29 08:31:30;;;;;;;;;53.75;39.00;;;;;18.33;71.48;102398.34;5131307;27;48824;-80
2022/04/29 08:33:56;;;;;;;;;43.50;35.50;;;;;18.33;71.06;102395.69;5114983;27;45480;-79
2022/04/29 08:36:21;;;;;;;;;47.25;37.00;;;;;18.33;70.86;102395.69;5119745;27;45360;-80
2022/04/29 08:38:47;;;;;;;;;46.50;36.25;;;;;18.35;71.31;102403.72;5119199;27;46460;-79
2022/04/29 08:41:12;;;;;;;;;49.00;38.50;;;;;18.41;71.26;102401.94;5127004;27;45244;-80
2022/04/29 08:43:38;;;;;;;;;45.50;36.75;;;;;18.46;71.00;102402.84;5139355;27;45426;-79
2022/04/29 08:46:06;;;;;;;;;47.25;35.25;;;;;18.49;70.77;102391.28;5139097;27;45533;-80
2022/04/29 08:48:32;;;;;;;;;49.00;37.50;;;;;18.55;70.36;102399.31;5139731;27;46535;-79
2022/04/29 08:50:59;;;;;;;;;46.25;38.00;;;;;18.62;71.03;102403.78;5140419;27;45278;-79
2022/04/29 08:53:24;;;;;;;;;47.25;39.25;;;;;18.68;70.62;102398.50;5125498;27;45447;-79
2022/04/29 08:58:37;;;;;;;;;46.50;36.00;;;;;18.90;70.54;102398.53;5120150;27;45515;-80
2022/04/29 09:01:10;;;;;;;;;46.75;37.50;;;;;19.04;70.17;102392.31;5119007;27;45140;-80
2022/04/29 09:03:37;;;;;;;;;45.50;39.00;;;;;19.13;69.57;102395.91;5124940;27;45449;-80
2022/04/29 09:06:04;;;;;;;;;44.25;37.00;;;;;19.22;69.83;102390.53;5139854;27;45454;-80
2022/04/29 09:08:37;;;;;;;;;46.75;36.50;;;;;19.31;69.92;102391.44;5137823;27;45723;-80
2022/04/29 09:11:05;;;;;;;;;51.25;41.00;;;;;19.40;69.13;102389.66;5131982;27;45313;-79
2022/04/29 09:13:32;;;;;;;;;47.50;38.25;;;;;19.50;69.24;102395.00;5139605;27;45503;-79
2022/04/29 09:16:00;;;;;;;;;49.00;38.50;;;;;19.58;68.78;102392.28;5120207;27;45608;-80
2022/04/29 09:18:49;;;;;;;;;46.00;38.50;;;;;19.70;69.05;102386.94;5133588;27;46510;-80
2022/04/29 09:21:26;;;;;;;;;45.50;37.00;;;;;19.83;68.51;102382.47;5136277;27;45495;-79
2022/04/29 09:23:59;;;;;;;;;42.75;35.00;;;;;19.94;67.82;102387.78;5136383;27;45399;-79
2022/04/29 09:26:27;;;;;;;;;45.00;38.00;;;;;20.01;67.82;102381.50;5139604;27;45443;-80
2022/04/29 09:28:53;;;;;;;;;46.75;38.75;;;;;20.07;67.47;102376.13;5139128;27;45709;-79
2022/04/29 09:31:19;;;;;;;;;43.75;35.50;;;;;20.13;67.45;102381.44;5136486;27;45298;-80
2022/04/29 09:33:58;;;;;;;;;41.50;38.00;;;;;20.19;67.78;102375.16;5118387;27;45273;-80
2022/04/29 09:36:27;;;;;;;;;49.25;39.50;;;;;20.30;66.93;102381.41;5106728;27;45559;-80
2022/04/29 09:41:39;;;;;;;;;40.00;34.75;;;;;20.44;66.63;102371.47;5122495;27;45218;-80
2022/04/29 09:44:04;;;;;;;;;43.50;36.75;;;;;20.52;65.99;102366.13;5118558;27;45233;-80
2022/04/29 09:46:30;;;;;;;;;43.75;33.25;;;;;20.59;66.04;102367.88;5117368;27;45502;-80
2022/04/29 09:48:55;;;;;;;;;44.50;39.00;;;;;20.66;65.09;102369.59;5137248;27;46948;-80
2022/04/29 09:51:53;;;;;;;;;42.75;36.25;;;;;20.82;65.53;102373.06;5132945;27;45249;-80
2022/04/29 09:54:26;;;;;;;;;45.50;36.75;;;;;20.93;64.68;102374.81;5118425;27;45340;-79
2022/04/29 09:57:15;;;;;;;;;45.25;37.00;;;;;21.08;64.33;102370.19;5136014;27;45425;-79
2022/04/29 10:00:02;;;;;;;;;40.25;34.25;;;;;21.19;64.36;102361.13;5122397;27;47265;-79
2022/04/29 10:02:28;;;;;;;;;43.25;35.00;;;;;21.27;63.87;102366.47;5138969;27;45490;-80
2022/04/29 10:04:54;;;;;;;;;42.75;36.50;;;;;21.34;62.56;102365.53;5138874;27;45559;-80
2022/04/29 10:07:23;;;;;;;;;34.25;31.75;;;;;21.34;62.68;102361.94;5138999;27;45217;-81
2022/04/29 10:09:54;;;;;;;;;41.25;32.75;;;;;21.39;62.89;102363.69;5130044;27;46487;-79
2022/04/29 10:12:21;;;;;;;;;37.00;32.50;;;;;21.44;61.74;102371.72;5139075;27;45407;-80
2022/04/29 10:14:48;;;;;;;;;33.75;31.50;;;;;21.46;61.73;102375.25;5137903;27;45220;-79
2022/04/29 10:22:53;;;;;;;;;43.25;34.50;;;;;21.53;61.86;102368.06;5117966;27;45203;-81
2022/04/29 10:25:20;;;;;;;;;39.75;32.75;;;;;21.56;61.27;102368.00;5130016;27;45219;-79
2022/04/29 10:27:51;;;;;;;;;40.25;33.75;;;;;21.54;60.81;102361.75;5138830;27;45218;-80
2022/04/29 10:30:28;;;;;;;;;37.50;33.25;;;;;21.53;60.84;102360.00;5138658;27;47533;-81
2022/04/29 10:33:02;;;;;;;;;45.50;36.25;;;;;21.56;60.18;102373.38;5121540;27;45327;-80
2022/04/29 10:35:46;;;;;;;;;37.00;33.50;;;;;21.57;60.88;102359.03;5131494;27;45235;-80
2022/04/29 10:38:23;;;;;;;;;39.00;33.33;;;;;21.59;60.51;102366.19;5138566;27;45407;-79
2022/04/29 10:41:17;;;;;;;;;37.25;33.25;;;;;21.63;60.10;102356.31;5132004;27;47089;-80
2022/04/29 10:43:52;;;;;;;;;42.50;34.00;;;;;21.67;59.12;102358.91;5137049;27;45553;-80
2022/04/29 10:46:38;;;;;;;;;54.75;39.25;;;;;21.69;59.01;102348.16;5111174;27;45265;-80
2022/04/29 10:49:27;;;;;;;;;45.75;33.75;;;;;21.75;59.49;102358.84;5121702;27;45550;-80
2022/04/29 10:51:56;;;;;;;;;40.25;33.50;;;;;21.83;59.50;102351.56;5121032;27;47534;-81
2022/04/29 10:54:55;;;;;;;;;36.67;33.00;;;;;21.92;57.78;102350.59;5120928;27;45241;-80
2022/04/29 10:57:36;;;;;;;;;40.67;32.67;;;;;21.95;58.14;102351.44;5120503;27;45362;-81
2022/04/29 11:00:10;;;;;;;;;46.33;33.33;;;;;22.00;57.49;102350.47;5122468;27;45471;-79
2022/04/29 11:02:35;;;;;;;;;39.67;32.33;;;;;21.98;57.58;102353.19;5137127;27;47665;-81
2022/04/29 11:05:02;;;;;;;;;36.67;31.00;;;;;21.96;57.16;102355.91;5139264;27;45523;-81
2022/04/29 11:07:36;;;;;;;;;32.00;29.67;;;;;21.91;54.87;102357.75;5141926;27;45356;-79
2022/04/29 11:10:03;;;;;;;;;35.33;31.00;;;;;21.91;57.07;102348.81;5126371;27;45515;-80
2022/04/29 11:12:33;;;;;;;;;44.67;32.67;;;;;21.94;56.63;102359.50;5119407;27;47878;-80
2022/04/29 11:15:21;;;;;;;;;38.25;31.25;;;;;21.92;55.84;102356.84;5127082;27;45445;-79
2022/04/29 11:17:47;;;;;;;;;39.67;31.00;;;;;21.92;55.97;102358.66;5140659;27;45365;-78
2022/04/29 11:20:23;;;;;;;;;30.00;25.00;;;;;21.90;56.38;102347.91;5140522;27;45602;-80
2022/04/29 11:25:59;;;;;;;;;43.75;34.25;;;;;22.06;55.88;102350.44;5141424;27;45327;-79
2022/04/29 11:28:26;;;;;;;;;75.25;57.00;;;;;22.16;55.66;102344.94;5141696;27;45447;-79
2022/04/29 11:31:00;;;;;;;;;98.00;91.75;;;;;22.27;54.76;102349.28;5135286;27;45411;-80
2022/04/29 11:33:25;;;;;;;;;40.75;34.75;;;;;22.35;54.19;102340.19;5116906;27;46940;-80
2022/04/29 11:36:10;;;;;;;;;34.00;31.67;;;;;22.36;53.16;102343.75;5116985;27;45280;-79
2022/04/29 11:38:47;;;;;;;;;34.00;31.67;;;;;22.32;53.81;102328.56;5120583;27;45300;-80